createdAt,value
2022-11-16T00:03:26.878Z,13.20
2022-11-16T00:08:34.904Z,12.72
2022-11-16T00:13:39.057Z,10.83
2022-11-16T00:18:42.302Z,12.12
2022-11-16T00:23:45.427Z,13.02
2022-11-16T00:28:48.477Z,13.37
2022-11-16T00:33:51.898Z,12.40
2022-11-16T00:38:54.591Z,11.13
2022-11-16T00:43:57.243Z,12.59
2022-11-16T00:49:02.381Z,13.27
2022-11-16T00:54:06.967Z,11.60
2022-11-16T00:59:09.623Z,10.80
2022-11-16T01:04:12.530Z,12.34
2022-11-16T01:09:15.267Z,13.15
2022-11-16T01:14:17.948Z,12.57
2022-11-16T01:19:20.613Z,10.64
2022-11-16T01:24:24.508Z,11.88
2022-11-16T01:29:30.062Z,13.03
2022-11-16T01:34:32.869Z,12.67
2022-11-16T01:39:35.563Z,10.73
2022-11-16T01:44:39.144Z,11.99
2022-11-16T01:49:48.565Z,12.99
2022-11-16T01:54:53.854Z,12.34
2022-11-16T01:59:59.223Z,10.51
2022-11-16T02:05:02.985Z,11.93
2022-11-16T02:10:14.259Z,12.92
2022-11-16T02:15:21.113Z,12.02
2022-11-16T02:20:36.924Z,10.34
2022-11-16T02:25:44.471Z,11.94
2022-11-16T02:30:53.384Z,12.19
2022-11-16T02:36:00.219Z,10.39
2022-11-16T02:41:11.200Z,11.70
2022-11-16T02:46:21.513Z,12.43
2022-11-16T02:51:27.417Z,10.31
2022-11-16T02:56:30.597Z,8.68
2022-11-16T03:01:40.031Z,10.33
2022-11-16T03:06:46.906Z,11.16
2022-11-16T03:11:57.726Z,9.34
2022-11-16T03:17:02.182Z,10.53
2022-11-16T03:22:12.516Z,11.08
2022-11-16T03:27:26.800Z,9.10
2022-11-16T03:32:51.658Z,10.07
2022-11-16T03:37:58.453Z,11.12
2022-11-16T03:43:03.508Z,9.08
2022-11-16T03:48:06.872Z,7.80
2022-11-16T03:53:10.172Z,9.75
2022-11-16T03:58:12.721Z,10.95
2022-11-16T04:03:15.387Z,8.94
2022-11-16T04:08:21.211Z,7.56
2022-11-16T04:13:32.465Z,8.81
2022-11-16T04:18:37.977Z,11.02
2022-11-16T04:23:43.865Z,9.30
2022-11-16T04:28:46.524Z,7.95
2022-11-16T04:33:55.072Z,9.90
2022-11-16T04:38:57.826Z,10.43
2022-11-16T04:44:00.555Z,8.57
2022-11-16T04:49:03.128Z,10.41
2022-11-16T04:54:05.730Z,10.53
2022-11-16T04:59:08.468Z,8.23
2022-11-16T05:04:11.474Z,9.16
2022-11-16T05:09:14.477Z,10.27
2022-11-16T05:14:17.267Z,8.22
2022-11-16T05:19:22.751Z,8.19
2022-11-16T05:24:28.254Z,10.36
2022-11-16T05:29:33.357Z,8.78
2022-11-16T05:34:35.941Z,8.04
2022-11-16T05:39:38.656Z,10.14
2022-11-16T05:44:43.332Z,9.92
2022-11-16T05:49:48.107Z,7.48
2022-11-16T05:54:50.665Z,7.30
2022-11-16T05:59:53.185Z,9.84
2022-11-16T06:04:55.732Z,10.00
2022-11-16T06:09:58.387Z,7.53
2022-11-16T06:15:00.958Z,7.36
2022-11-16T06:20:03.804Z,10.00
2022-11-16T06:25:06.766Z,9.88
2022-11-16T06:30:09.533Z,7.52
2022-11-16T06:35:12.122Z,8.03
2022-11-16T06:40:15.145Z,10.41
2022-11-16T06:45:18.063Z,9.37
2022-11-16T06:50:20.728Z,7.46
2022-11-16T06:55:23.358Z,9.50
2022-11-16T07:00:25.896Z,9.95
2022-11-16T07:05:28.473Z,7.53
2022-11-16T07:10:31.561Z,8.34
2022-11-16T07:15:34.211Z,9.80
2022-11-16T07:20:37.433Z,7.99
2022-11-16T07:25:40.809Z,8.11
2022-11-16T07:30:44.748Z,10.10
2022-11-16T07:35:47.567Z,8.85
2022-11-16T07:40:50.123Z,6.80
2022-11-16T07:45:53.374Z,7.02
2022-11-16T07:51:00.951Z,9.78
2022-11-16T07:56:04.049Z,8.81
2022-11-16T08:01:09.508Z,7.29
2022-11-16T08:06:16.283Z,9.16
2022-11-16T08:11:28.210Z,9.46
2022-11-16T08:16:33.101Z,7.13
2022-11-16T08:21:35.802Z,7.15
2022-11-16T08:26:38.605Z,9.14
2022-11-16T08:31:44.440Z,9.01
2022-11-16T08:36:47.513Z,6.84
2022-11-16T08:41:50.883Z,7.86
2022-11-16T08:46:53.415Z,8.95
2022-11-16T08:51:56.309Z,7.08
2022-11-16T08:56:59.115Z,5.85
2022-11-16T09:02:01.827Z,7.61
2022-11-16T09:07:04.603Z,9.60
2022-11-16T09:12:07.287Z,7.60
2022-11-16T09:17:09.820Z,5.99
2022-11-16T09:22:12.369Z,7.55
2022-11-16T09:27:15.350Z,8.90
2022-11-16T09:32:17.939Z,6.83
2022-11-16T09:37:20.520Z,5.59
2022-11-16T09:42:30.917Z,7.05
2022-11-16T09:47:40.240Z,9.17
2022-11-16T09:52:51.410Z,7.23
2022-11-16T09:57:58.217Z,5.68
2022-11-16T10:03:06.552Z,6.24
2022-11-16T10:08:18.504Z,9.01
2022-11-16T10:13:23.578Z,7.67
2022-11-16T10:18:29.011Z,6.92
2022-11-16T10:23:38.625Z,8.73
2022-11-16T10:28:43.112Z,7.32
2022-11-16T10:33:48.732Z,5.85
2022-11-16T10:38:51.441Z,5.02
2022-11-16T10:43:57.994Z,6.58
2022-11-16T10:49:11.406Z,8.69
2022-11-16T10:54:16.603Z,6.75
2022-11-16T10:59:19.703Z,5.31
2022-11-16T11:04:25.790Z,6.19
2022-11-16T11:09:30.471Z,8.87
2022-11-16T11:14:35.695Z,7.35
2022-11-16T11:19:38.362Z,5.70
2022-11-16T11:24:48.307Z,5.75
2022-11-16T11:29:54.256Z,8.07
2022-11-16T11:34:59.972Z,7.48
2022-11-16T11:40:05.473Z,5.67
2022-11-16T11:45:16.226Z,4.66
2022-11-16T11:50:21.822Z,5.17
2022-11-16T11:55:24.766Z,8.00
2022-11-16T12:00:31.053Z,7.82
2022-11-16T12:05:36.638Z,5.94
2022-11-16T12:10:41.197Z,7.78
2022-11-16T12:15:53.167Z,8.20
2022-11-16T12:20:59.648Z,5.83
2022-11-16T12:26:06.150Z,5.35
2022-11-16T12:31:22.811Z,7.99
2022-11-16T12:36:35.552Z,7.60
2022-11-16T12:41:45.849Z,5.40
2022-11-16T12:46:51.290Z,6.72
2022-11-16T12:51:57.775Z,7.48
2022-11-16T12:57:06.183Z,5.60
2022-11-16T13:02:14.743Z,4.84
2022-11-16T13:07:24.494Z,7.32
2022-11-16T13:12:30.394Z,7.69
2022-11-16T13:17:38.878Z,5.57
2022-11-16T13:22:51.547Z,6.26
2022-11-16T13:28:04.094Z,7.25
2022-11-16T13:33:08.597Z,5.53
2022-11-16T13:38:14.811Z,5.19
2022-11-16T13:43:18.261Z,7.67
2022-11-16T13:48:24.765Z,7.35
2022-11-16T13:58:56.994Z,5.82
2022-11-16T14:04:22.695Z,7.86
2022-11-16T14:09:33.156Z,6.33
2022-11-16T14:15:03.402Z,5.40
2022-11-16T14:20:12.613Z,7.70
2022-11-16T14:25:25.930Z,6.88
2022-11-16T14:30:36.105Z,5.07
2022-11-16T14:35:40.073Z,4.84
2022-11-16T14:40:46.559Z,7.21
2022-11-16T14:45:58.842Z,7.77
2022-11-16T14:51:08.576Z,5.91
2022-11-16T14:56:14.386Z,4.80
2022-11-16T15:01:19.046Z,5.10
2022-11-16T15:06:22.700Z,7.19
2022-11-16T15:11:48.813Z,6.29
2022-11-16T15:16:54.250Z,5.72
2022-11-16T15:21:59.578Z,7.59
2022-11-16T15:27:12.140Z,5.97
2022-11-16T15:32:17.704Z,5.69
2022-11-16T15:37:26.092Z,7.54
2022-11-16T15:42:29.329Z,5.86
2022-11-16T15:47:32.014Z,4.80
2022-11-16T15:52:43.697Z,6.52
2022-11-16T15:57:46.716Z,6.04
2022-11-16T16:02:51.400Z,4.84
2022-11-16T16:07:53.962Z,6.76
2022-11-16T16:12:59.721Z,7.51
2022-11-16T16:18:10.987Z,5.60
2022-11-16T16:23:16.754Z,4.31
2022-11-16T16:28:19.443Z,3.62
2022-11-16T16:33:25.555Z,4.20
2022-11-16T16:38:28.648Z,6.97
2022-11-16T16:43:32.479Z,6.25
2022-11-16T16:48:43.283Z,4.70
2022-11-16T16:53:47.160Z,3.92
2022-11-16T16:58:49.731Z,5.84
2022-11-16T17:03:52.557Z,7.31
2022-11-16T17:08:55.695Z,5.54
2022-11-16T17:14:00.674Z,4.53
2022-11-16T17:19:04.652Z,6.66
2022-11-16T17:24:07.293Z,7.52
2022-11-16T17:29:10.045Z,5.50
2022-11-16T17:34:14.378Z,4.23
2022-11-16T17:39:17.299Z,4.54
2022-11-16T17:44:21.813Z,7.24
2022-11-16T17:49:24.652Z,7.12
2022-11-16T17:54:27.204Z,5.17
2022-11-16T17:59:30.223Z,4.73
2022-11-16T18:04:32.791Z,7.14
2022-11-16T18:09:35.353Z,7.20
2022-11-16T18:14:37.922Z,5.16
2022-11-16T18:19:40.455Z,3.99
2022-11-16T18:24:43.435Z,3.33
2022-11-16T18:29:45.941Z,4.33
2022-11-16T18:34:48.550Z,7.07
2022-11-16T18:39:51.091Z,6.85
2022-11-16T18:44:53.898Z,5.04
2022-11-16T18:49:56.427Z,4.01
2022-11-16T18:55:31.459Z,3.39
2022-11-16T19:00:34.110Z,4.42
2022-11-16T19:05:36.791Z,7.26
2022-11-16T19:10:39.629Z,6.84
2022-11-16T19:15:42.272Z,4.94
2022-11-16T19:20:44.874Z,3.91
2022-11-16T19:25:47.695Z,3.34
2022-11-16T19:30:51.224Z,4.16
2022-11-16T19:35:53.775Z,7.16
2022-11-16T19:40:58.929Z,6.52
2022-11-16T19:46:03.816Z,4.88
2022-11-16T19:51:11.431Z,4.03
2022-11-16T19:56:16.585Z,5.60
2022-11-16T20:01:27.859Z,7.15
2022-11-16T20:06:33.918Z,5.31
2022-11-16T20:11:38.225Z,4.14
2022-11-16T20:16:42.775Z,3.53
2022-11-16T20:21:45.358Z,4.54
2022-11-16T20:26:49.188Z,7.36
2022-11-16T20:31:51.747Z,7.08
2022-11-16T20:36:54.317Z,5.24
2022-11-16T20:41:56.897Z,4.22
2022-11-16T20:46:59.499Z,4.15
2022-11-16T20:52:02.409Z,6.86
2022-11-16T20:57:05.007Z,7.05
2022-11-16T21:02:10.502Z,5.25
2022-11-16T21:07:14.019Z,4.28
2022-11-16T21:12:19.534Z,3.67
2022-11-16T21:17:22.069Z,4.26
2022-11-16T21:22:27.081Z,7.09
2022-11-16T21:27:33.643Z,6.74
2022-11-16T21:32:36.192Z,5.11
2022-11-16T21:37:38.729Z,4.71
2022-11-16T21:42:41.333Z,7.00
2022-11-16T21:47:43.980Z,6.17
2022-11-16T21:52:46.524Z,4.61
2022-11-16T21:57:49.102Z,4.52
2022-11-16T22:02:51.697Z,6.93
2022-11-16T22:07:54.334Z,6.66
2022-11-16T22:12:56.899Z,4.92
2022-11-16T22:17:59.418Z,3.86
2022-11-16T22:23:01.969Z,3.64
2022-11-16T22:28:21.139Z,6.19
2022-11-16T22:33:24.057Z,6.80
2022-11-16T22:38:26.770Z,4.95
2022-11-16T22:43:31.023Z,3.92
2022-11-16T22:48:39.070Z,3.69
2022-11-16T22:53:41.653Z,6.25
2022-11-16T22:58:44.214Z,7.09
2022-11-16T23:03:47.746Z,5.34
2022-11-16T23:08:50.627Z,4.20
2022-11-16T23:13:57.096Z,3.52
2022-11-16T23:19:00.141Z,3.88
2022-11-16T23:24:06.277Z,6.67
2022-11-16T23:29:10.465Z,6.54
2022-11-16T23:34:13.010Z,4.82
2022-11-16T23:39:15.600Z,3.89
2022-11-16T23:44:18.352Z,5.13
2022-11-16T23:49:20.899Z,6.99
2022-11-16T23:54:23.578Z,5.39
2022-11-16T23:59:26.099Z,4.09
